Time;durP1;ratioP1;P1;durP2;ratioP2;P2;SDS_P1;SDS_P2;PMS_P1;PMS_P2;Temp;Humidity;BMP_temperature;BMP_pressure;BME280_temperature;BME280_humidity;BME280_pressure;Samples;Min_cycle;Max_cycle;Signal;HPM_P1;HPM_P2
2021/12/04 00:02:11;;;;;;;11.43;6.80;;;;;;;7.27;54.65;99929.66;4969136;28;99252;-77
2021/12/04 00:04:42;;;;;;;10.52;6.60;;;;;;;7.20;54.95;99925.50;4976523;28;96729;-78
2021/12/04 00:07:10;;;;;;;12.95;6.45;;;;;;;7.11;55.10;99918.78;4968446;28;96668;-80
2021/12/04 00:09:38;;;;;;;15.80;7.03;;;;;;;7.03;55.40;99915.56;4971774;28;99048;-77
2021/12/04 00:12:06;;;;;;;13.15;6.15;;;;;;;6.73;56.11;99912.22;4974941;28;99364;-78
2021/12/04 00:14:35;;;;;;;13.05;7.60;;;;;;;6.78;56.24;99912.06;4965607;28;97007;-77
2021/12/04 00:17:02;;;;;;;15.65;6.57;;;;;;;6.82;55.27;99918.94;4970771;28;97724;-77
2021/12/04 00:19:28;;;;;;;12.55;6.72;;;;;;;6.85;56.19;99916.19;4959923;28;99135;-79
2021/12/04 00:21:57;;;;;;;12.00;6.30;;;;;;;7.18;55.33;99915.03;4972815;28;99149;-79
2021/12/04 00:24:25;;;;;;;10.98;6.70;;;;;;;6.93;55.97;99918.56;4972959;28;96879;-78
2021/12/04 00:26:52;;;;;;;14.82;6.72;;;;;;;6.90;55.93;99909.00;4977617;28;96858;-80
2021/12/04 00:29:19;;;;;;;12.10;6.55;;;;;;;7.03;55.58;99910.31;4975672;28;98845;-79
2021/12/04 00:31:48;;;;;;;10.75;6.15;;;;;;;7.00;56.39;99914.81;4973392;28;98801;-78
2021/12/04 00:34:15;;;;;;;10.18;5.85;;;;;;;7.05;56.27;99903.25;4976419;28;96932;-78
2021/12/04 00:36:57;;;;;;;13.70;6.70;;;;;;;6.91;55.58;99909.88;4972011;28;96779;-78
2021/12/04 00:50:24;;;;;;;15.73;6.17;;;;;;;7.04;55.89;99900.66;4947043;28;97531;-78
2021/12/04 00:52:50;;;;;;;15.05;6.38;;;;;;;7.07;55.69;99900.56;4974675;28;98129;-78
2021/12/04 00:55:18;;;;;;;10.18;6.38;;;;;;;7.06;56.40;99898.84;4976162;28;96899;-78
2021/12/04 00:57:44;;;;;;;13.63;6.57;;;;;;;6.87;56.45;99895.13;4977422;28;96772;-78
2021/12/04 01:00:12;;;;;;;10.65;6.30;;;;;;;7.02;56.69;99892.00;4974402;28;101150;-78
2021/12/04 01:02:38;;;;;;;14.68;6.28;;;;;;;7.16;55.50;99894.97;4965662;28;99498;-78
2021/12/04 01:05:05;;;;;;;11.45;6.85;;;;;;;7.00;56.49;99896.44;4975300;28;96780;-78
2021/12/04 01:07:33;;;;;;;11.25;6.68;;;;;;;7.07;56.12;99896.19;4969710;28;96741;-78
2021/12/04 01:10:00;;;;;;;17.25;7.18;;;;;;;6.99;56.34;99898.19;4972477;28;99331;-78
2021/12/04 01:12:28;;;;;;;13.38;6.35;;;;;;;7.03;56.33;99893.69;4976978;28;101993;-78
2021/12/04 01:14:54;;;;;;;10.38;6.45;;;;;;;6.66;56.93;99889.69;4976280;28;96870;-78
2021/12/04 01:17:21;;;;;;;12.68;6.40;;;;;;;7.04;56.73;99898.03;4976768;28;98663;-79
2021/12/04 01:19:48;;;;;;;20.98;9.75;;;;;;;6.99;56.67;99894.72;4970875;28;99005;-78
2021/12/04 01:22:14;;;;;;;17.02;8.65;;;;;;;7.35;55.82;99900.47;4973777;28;102057;-78
2021/12/04 01:24:41;;;;;;;22.52;11.77;;;;;;;7.23;56.19;99885.97;4966419;28;96957;-77
2021/12/04 01:27:08;;;;;;;14.35;7.85;;;;;;;7.35;55.15;99890.78;4970535;28;96836;-79
2021/12/04 01:29:36;;;;;;;16.85;11.65;;;;;;;7.49;55.08;99892.91;4975916;28;101817;-77
2021/12/04 01:32:06;;;;;;;13.65;7.00;;;;;;;7.20;55.56;99896.59;4971998;28;99182;-77
2021/12/04 01:34:34;;;;;;;8.48;6.50;;;;;;;7.28;56.15;99884.06;4968316;28;96682;-78
2021/12/04 01:37:01;;;;;;;11.32;5.82;;;;;;;7.32;56.03;99892.69;4966315;28;96875;-78
2021/12/04 01:39:27;;;;;;;10.75;6.57;;;;;;;7.41;55.79;99895.00;4963404;28;99060;-78
2021/12/04 01:41:54;;;;;;;9.90;6.63;;;;;;;7.33;55.71;99892.63;4963796;28;98947;-77
2021/12/04 01:44:21;;;;;;;10.88;6.47;;;;;;;7.34;55.73;99894.34;4974752;28;96836;-78
2021/12/04 01:46:55;;;;;;;12.15;7.35;;;;;;;7.27;56.19;99892.00;4974601;28;97278;-77
2021/12/04 01:49:22;;;;;;;14.60;6.95;;;;;;;7.61;56.12;99893.31;4973126;28;98843;-77
2021/12/04 01:51:48;;;;;;;18.38;7.88;;;;;;;7.45;55.76;99892.19;4973870;28;98210;-77
2021/12/04 01:54:15;;;;;;;12.48;6.32;;;;;;;7.17;56.97;99884.41;4970412;28;96940;-78
2021/12/04 01:56:42;;;;;;;13.40;6.65;;;;;;;7.05;56.45;99882.22;4976135;28;96789;-77
2021/12/04 01:59:09;;;;;;;11.80;6.55;;;;;;;7.12;56.59;99891.63;4973977;28;99381;-77
2021/12/04 02:01:35;;;;;;;11.35;6.75;;;;;;;7.06;56.75;99889.19;4976764;28;98915;-76
2021/12/04 02:04:04;;;;;;;15.80;6.85;;;;;;;7.20;57.20;99886.09;4965281;28;96816;-77
2021/12/04 02:06:30;;;;;;;13.77;6.60;;;;;;;7.40;56.16;99886.25;4967342;28;96802;-79
2021/12/04 02:08:57;;;;;;;11.98;6.90;;;;;;;7.32;55.65;99880.41;4969279;28;101669;-77
2021/12/04 02:11:23;;;;;;;10.57;6.50;;;;;;;6.99;57.60;99882.44;4975504;28;99471;-77
2021/12/04 02:13:50;;;;;;;11.00;6.88;;;;;;;7.05;56.67;99870.84;4971353;28;96838;-77
2021/12/04 02:16:17;;;;;;;14.10;6.88;;;;;;;6.98;56.88;99866.72;4975103;28;97119;-77
2021/12/04 02:18:44;;;;;;;10.77;6.75;;;;;;;7.10;56.97;99863.66;4972617;28;101255;-78
2021/12/04 02:21:13;;;;;;;10.90;6.80;;;;;;;7.06;56.84;99865.56;4996687;28;97834;-78
2021/12/04 02:23:39;;;;;;;12.80;7.00;;;;;;;7.26;57.06;99861.38;4968551;28;96922;-78
2021/12/04 02:26:06;;;;;;;12.02;6.90;;;;;;;7.20;57.32;99865.06;4974331;28;96800;-78
2021/12/04 02:28:33;;;;;;;9.23;6.70;;;;;;;7.28;56.67;99867.44;4997805;28;98600;-77
2021/12/04 02:30:59;;;;;;;12.75;6.78;;;;;;;7.10;57.33;99863.66;4999570;28;96501;-77
2021/12/04 02:33:26;;;;;;;11.63;6.60;;;;;;;7.30;56.99;99860.34;4990863;28;96574;-78
2021/12/04 02:35:54;;;;;;;11.10;6.55;;;;;;;7.36;56.59;99862.75;4987143;28;96731;-77
2021/12/04 02:38:25;;;;;;;11.20;6.80;;;;;;;7.10;57.05;99866.28;4985056;28;99245;-77
2021/12/04 02:40:53;;;;;;;8.63;6.40;;;;;;;7.20;56.83;99862.44;4976839;28;98366;-77
2021/12/04 02:43:20;;;;;;;10.73;6.72;;;;;;;7.10;57.33;99854.03;4975083;28;99122;-78
2021/12/04 02:45:46;;;;;;;12.77;6.32;;;;;;;7.30;56.85;99860.34;4980312;28;96838;-77
2021/12/04 02:48:13;;;;;;;11.93;6.80;;;;;;;7.47;56.21;99843.06;4977662;28;99501;-77
2021/12/04 02:50:40;;;;;;;11.60;7.05;;;;;;;7.36;56.60;99844.34;4994052;28;97953;-77
2021/12/04 02:53:07;;;;;;;11.00;7.10;;;;;;;7.57;56.12;99846.19;4995128;28;96646;-77
2021/12/04 02:55:38;;;;;;;12.38;6.68;;;;;;;7.40;56.26;99836.31;5001161;28;96465;-77
2021/12/04 02:58:05;;;;;;;14.18;7.88;;;;;;;7.72;55.52;99836.88;4994209;28;99442;-78
2021/12/04 03:00:32;;;;;;;10.60;7.20;;;;;;;7.62;55.35;99841.59;4971690;28;98036;-78
2021/12/04 03:02:58;;;;;;;12.80;6.82;;;;;;;7.58;55.67;99829.50;4980094;22;97212;-79
2021/12/04 03:05:26;;;;;;;13.35;7.22;;;;;;;7.62;55.85;99831.09;4951926;28;96920;-77
2021/12/04 03:07:54;;;;;;;12.48;6.85;;;;;;;7.63;56.14;99824.06;4951769;28;97873;-79
2021/12/04 03:10:25;;;;;;;10.95;7.22;;;;;;;7.63;55.75;99822.28;4948853;28;98858;-78
2021/12/04 03:12:54;;;;;;;12.25;6.95;;;;;;;7.48;55.72;99813.19;4957542;28;96637;-77
2021/12/04 03:15:22;;;;;;;13.25;7.43;;;;;;;7.41;56.30;99817.00;4963824;28;96949;-81
2021/12/04 03:17:50;;;;;;;11.35;7.03;;;;;;;7.24;56.02;99816.75;4957758;28;98988;-77
2021/12/04 03:20:18;;;;;;;10.13;7.13;;;;;;;7.58;55.85;99813.72;4948865;28;99354;-78
2021/12/04 03:22:47;;;;;;;11.98;6.93;;;;;;;7.64;55.78;99810.00;4957864;28;96860;-79
2021/12/04 03:25:17;;;;;;;11.95;7.90;;;;;;;7.70;55.89;99804.50;4949691;28;97065;-79
2021/12/04 03:27:47;;;;;;;12.23;7.72;;;;;;;7.88;55.00;99806.41;4951423;28;98919;-78
2021/12/04 03:30:24;;;;;;;13.15;7.45;;;;;;;7.67;55.07;99809.91;4958049;28;99923;-77
2021/12/04 03:35:15;;;;;;;13.27;7.60;;;;;;;7.65;55.64;99801.19;4957146;28;96600;-80
2021/12/04 03:41:17;;;;;;;14.75;8.23;;;;;;;7.74;55.70;99803.50;4955689;28;97022;-78
2021/12/04 03:43:44;;;;;;;11.85;7.35;;;;;;;7.78;55.38;99803.31;4955202;28;96781;-77
2021/12/04 03:46:15;;;;;;;13.05;7.70;;;;;;;7.88;55.38;99804.63;4948917;28;96822;-80
2021/12/04 03:48:51;;;;;;;11.90;7.97;;;;;;;7.80;54.84;99806.72;4949592;28;99106;-78
2021/12/04 03:51:18;;;;;;;13.20;7.97;;;;;;;7.86;54.79;99798.59;4952124;28;99224;-79
2021/12/04 03:53:46;;;;;;;12.45;8.05;;;;;;;7.70;55.22;99807.13;4951333;28;96736;-78
2021/12/04 03:56:15;;;;;;;14.63;8.10;;;;;;;7.57;55.48;99812.88;4954114;28;96781;-78
2021/12/04 03:58:43;;;;;;;15.77;8.63;;;;;;;7.73;55.18;99797.38;4952296;28;98862;-78
2021/12/04 04:01:19;;;;;;;12.70;8.18;;;;;;;7.92;55.23;99808.88;4955410;28;98690;-78
2021/12/04 04:03:46;;;;;;;17.80;8.75;;;;;;;7.99;54.70;99804.22;4951148;28;96900;-78
2021/12/04 04:06:13;;;;;;;12.73;8.27;;;;;;;7.98;54.58;99797.25;4958703;28;97821;-79
2021/12/04 04:08:40;;;;;;;13.95;8.63;;;;;;;7.82;54.52;99796.13;4958288;28;99240;-80
2021/12/04 04:11:06;;;;;;;14.45;8.63;;;;;;;7.74;55.42;99800.84;4955977;28;97597;-78
2021/12/04 04:13:33;;;;;;;17.70;8.93;;;;;;;8.09;55.18;99795.03;4958286;28;96789;-79
2021/12/04 04:16:00;;;;;;;14.27;8.43;;;;;;;7.96;54.29;99799.06;4957590;28;99148;-80
2021/12/04 04:18:31;;;;;;;13.63;8.98;;;;;;;7.99;54.77;99786.69;4955656;28;101259;-78
2021/12/04 04:20:58;;;;;;;11.00;7.90;;;;;;;7.75;54.85;99792.03;4959572;28;98945;-78
2021/12/04 04:23:24;;;;;;;14.00;8.82;;;;;;;8.00;54.89;99785.75;4958014;28;97082;-79
2021/12/04 04:25:54;;;;;;;15.35;8.50;;;;;;;8.14;55.05;99792.25;4960836;28;96829;-78
2021/12/04 04:28:24;;;;;;;12.10;8.73;;;;;;;8.07;54.46;99783.75;4959232;28;99255;-78
2021/12/04 04:30:51;;;;;;;16.27;8.73;;;;;;;8.03;54.08;99790.03;4953627;28;99829;-79
2021/12/04 04:33:19;;;;;;;12.60;8.52;;;;;;;8.11;54.62;99795.00;4957773;28;96812;-77
2021/12/04 04:35:59;;;;;;;14.68;9.27;;;;;;;8.08;54.01;99789.84;4949739;28;96933;-78
2021/12/04 04:38:34;;;;;;;15.18;8.82;;;;;;;8.12;54.37;99784.41;4955649;28;99423;-78
2021/12/04 04:57:43;;;;;;;15.50;9.45;;;;;;;7.77;55.26;99766.53;4954563;28;97119;-79
2021/12/04 05:00:30;;;;;;;17.33;10.05;;;;;;;7.84;55.27;99768.00;4954985;28;99096;-78
2021/12/04 05:11:15;;;;;;;16.48;11.07;;;;;;;7.87;55.31;99760.88;4954034;28;97107;-79
2021/12/04 05:13:41;;;;;;;15.73;10.68;;;;;;;7.95;55.12;99761.38;4969712;28;99507;-79
2021/12/04 05:16:12;;;;;;;18.60;10.05;;;;;;;7.84;54.91;99762.75;4956201;28;96717;-78
2021/12/04 05:18:42;;;;;;;16.55;11.27;;;;;;;7.66;56.04;99759.06;4953630;28;97151;-78
2021/12/04 05:21:11;;;;;;;16.30;11.05;;;;;;;7.50;56.66;99763.19;4956772;28;98857;-78
2021/12/04 05:23:43;;;;;;;15.90;10.98;;;;;;;7.63;56.23;99763.59;4953972;28;100273;-79
2021/12/04 05:26:12;;;;;;;15.13;10.45;;;;;;;7.47;56.27;99761.56;4953514;28;96617;-79
2021/12/04 05:28:39;;;;;;;15.90;10.95;;;;;;;7.53;56.37;99761.34;4955663;28;96718;-79
2021/12/04 05:31:06;;;;;;;16.35;11.02;;;;;;;7.49;55.99;99762.34;4956977;28;99333;-77
2021/12/04 05:33:32;;;;;;;18.63;11.55;;;;;;;7.58;56.40;99756.75;4955731;28;98803;-80
2021/12/04 05:35:59;;;;;;;18.48;10.82;;;;;;;7.83;55.45;99756.63;4953041;28;96802;-79
2021/12/04 05:38:27;;;;;;;16.75;11.35;;;;;;;7.46;56.33;99765.09;4950435;28;96789;-78
2021/12/04 05:40:57;;;;;;;15.25;10.75;;;;;;;7.54;56.84;99759.56;4956555;28;101857;-78
2021/12/04 05:43:26;;;;;;;18.95;10.48;;;;;;;7.81;56.11;99757.63;4956710;28;98810;-78
2021/12/04 05:45:59;;;;;;;15.38;10.77;;;;;;;7.55;56.28;99758.63;4950007;28;98610;-79
2021/12/04 05:48:33;;;;;;;17.35;11.30;;;;;;;7.44;56.48;99755.56;4955387;28;97019;-78
2021/12/04 05:54:04;;;;;;;16.05;10.85;;;;;;;7.52;55.82;99761.38;4949850;28;97449;-78
2021/12/04 05:56:36;;;;;;;16.40;11.00;;;;;;;7.69;55.93;99758.94;4957343;28;97453;-78
2021/12/04 05:59:05;;;;;;;16.30;11.55;;;;;;;7.81;55.89;99749.75;4954881;28;96734;-78
2021/12/04 06:01:32;;;;;;;17.05;11.88;;;;;;;7.51;55.75;99754.41;4955192;28;99216;-78
2021/12/04 06:04:00;;;;;;;16.25;11.25;;;;;;;7.29;56.17;99745.63;4943142;28;98878;-79
2021/12/04 06:06:27;;;;;;;16.33;10.95;;;;;;;7.40;56.69;99749.56;4953998;28;97798;-80
2021/12/04 06:08:54;;;;;;;16.20;10.57;;;;;;;7.33;57.18;99748.09;4953123;28;97292;-78
2021/12/04 06:11:21;;;;;;;14.55;10.27;;;;;;;7.17;56.83;99760.06;4950760;28;102123;-80
2021/12/04 06:13:49;;;;;;;15.27;8.70;;;;;;;7.35;56.38;99754.13;4956031;28;98819;-78
2021/12/04 06:16:17;;;;;;;16.40;9.18;;;;;;;7.32;56.79;99761.28;4957272;28;96893;-80
2021/12/04 06:18:46;;;;;;;13.23;9.07;;;;;;;7.47;55.79;99758.94;4953924;28;96910;-78
2021/12/04 06:23:57;;;;;;;16.00;9.13;;;;;;;7.74;55.24;99764.03;4951010;28;97170;-78
2021/12/04 06:26:24;;;;;;;13.32;8.65;;;;;;;7.54;55.99;99770.06;4958363;28;97215;-78
2021/12/04 06:28:52;;;;;;;11.88;8.50;;;;;;;7.47;56.09;99763.34;4958422;28;97247;-77
2021/12/04 06:31:18;;;;;;;11.65;8.55;;;;;;;7.23;56.74;99762.47;4956878;28;99279;-77
2021/12/04 06:33:45;;;;;;;13.38;8.35;;;;;;;7.17;57.25;99770.59;4950775;28;98861;-79
2021/12/04 06:36:11;;;;;;;12.18;7.68;;;;;;;7.20;57.51;99766.09;4956193;28;96840;-78
2021/12/04 06:38:38;;;;;;;11.73;8.20;;;;;;;7.21;56.89;99766.94;4945811;28;97123;-78
2021/12/04 06:41:06;;;;;;;11.40;7.88;;;;;;;7.20;57.08;99763.47;4946035;28;98837;-78
2021/12/04 06:43:33;;;;;;;12.40;7.97;;;;;;;7.20;56.72;99763.47;4950275;28;98862;-77
2021/12/04 06:46:08;;;;;;;10.23;7.40;;;;;;;7.40;56.59;99759.22;4952653;28;96770;-78
2021/12/04 06:48:42;;;;;;;12.93;8.80;;;;;;;7.36;56.84;99753.22;4946239;28;97128;-77
2021/12/04 06:51:15;;;;;;;12.25;8.30;;;;;;;7.27;56.56;99766.72;4952448;28;97897;-77
2021/12/04 06:53:45;;;;;;;11.43;7.63;;;;;;;7.37;57.09;99761.97;4951796;28;99381;-78
2021/12/04 06:56:22;;;;;;;;;;;;;;;;;;;;;
2021/12/04 06:58:50;;;;;;;12.30;8.15;;;;;;;7.35;56.36;99769.06;4953099;28;113013;-78
2021/12/04 07:01:18;;;;;;;15.30;9.07;;;;;;;7.67;56.40;99759.94;4955983;28;98012;-78
2021/12/04 07:03:45;;;;;;;11.98;8.10;;;;;;;7.60;55.68;99768.06;4967970;28;98871;-78
2021/12/04 07:06:11;;;;;;;13.82;8.57;;;;;;;7.74;55.67;99756.16;4952473;28;98594;-79
2021/12/04 07:08:38;;;;;;;12.60;8.05;;;;;;;7.80;55.27;99750.66;4958240;28;97342;-77
2021/12/04 07:11:06;;;;;;;14.85;8.40;;;;;;;7.53;56.10;99757.84;4955180;28;99285;-79
2021/12/04 07:13:33;;;;;;;12.63;8.18;;;;;;;7.29;56.29;99759.63;4950036;28;96890;-79
2021/12/04 07:16:03;;;;;;;15.27;8.75;;;;;;;7.68;56.09;99753.78;4952205;28;97818;-79
2021/12/04 07:18:35;;;;;;;14.02;8.60;;;;;;;7.51;56.32;99760.53;4956673;28;96616;-80
2021/12/04 07:21:03;;;;;;;21.20;8.73;;;;;;;7.71;55.48;99759.75;4955064;28;98864;-78
2021/12/04 07:23:29;;;;;;;11.23;7.82;;;;;;;7.67;55.27;99752.91;4952303;28;99253;-77
2021/12/04 07:25:56;;;;;;;10.60;7.20;;;;;;;7.71;55.34;99757.13;4944229;28;96729;-78
2021/12/04 07:28:22;;;;;;;11.23;7.70;;;;;;;7.61;55.32;99751.34;4958115;28;96679;-78
2021/12/04 07:30:49;;;;;;;13.13;7.90;;;;;;;7.59;55.88;99747.94;4952714;28;99072;-78
2021/12/04 07:33:17;;;;;;;11.35;7.38;;;;;;;7.27;56.26;99756.22;4958756;28;99280;-77
2021/12/04 07:35:46;;;;;;;10.82;7.03;;;;;;;7.32;56.26;99762.13;4964369;28;96620;-77
2021/12/04 07:38:14;;;;;;;15.70;7.85;;;;;;;7.71;55.99;99758.88;4963611;28;96723;-79
2021/12/04 07:40:40;;;;;;;11.85;7.65;;;;;;;7.90;55.08;99760.72;4960157;28;98089;-79
2021/12/04 07:43:07;;;;;;;14.18;7.72;;;;;;;7.79;54.84;99754.19;4959447;28;97658;-76
2021/12/04 07:45:34;;;;;;;11.35;7.28;;;;;;;7.86;54.50;99755.66;4962662;28;96756;-77
2021/12/04 07:48:01;;;;;;;14.35;7.03;;;;;;;7.53;55.33;99758.69;4963348;28;96766;-79
2021/12/04 07:50:29;;;;;;;9.65;6.97;;;;;;;7.53;55.59;99768.34;4954937;28;99256;-78
2021/12/04 07:53:04;;;;;;;13.75;7.30;;;;;;;7.31;56.09;99768.31;4961071;28;101758;-79
2021/12/04 07:55:31;;;;;;;12.55;7.35;;;;;;;7.65;55.28;99761.75;4959925;28;96816;-80
2021/12/04 07:57:59;;;;;;;14.20;7.03;;;;;;;7.84;54.71;99760.13;4954777;28;96883;-77
2021/12/04 08:00:43;;;;;;;8.27;6.43;;;;;;;8.04;53.90;99759.31;4955984;28;99390;-79
2021/12/04 08:03:10;;;;;;;13.30;6.82;;;;;;;7.59;54.32;99762.84;4949019;28;98807;-79
2021/12/04 08:05:37;;;;;;;8.88;6.10;;;;;;;7.76;54.75;99767.44;4956810;28;96829;-79
2021/12/04 08:08:07;;;;;;;11.30;6.70;;;;;;;7.87;54.14;99770.53;4956310;28;96739;-78
2021/12/04 08:10:34;;;;;;;12.02;6.80;;;;;;;8.26;53.71;99771.53;4956653;28;98896;-78
2021/12/04 08:13:02;;;;;;;14.55;6.93;;;;;;;8.08;53.16;99766.16;4956726;28;98988;-79
2021/12/04 08:15:29;;;;;;;11.98;6.45;;;;;;;8.09;52.94;99771.34;4957704;28;96729;-80
2021/12/04 08:17:56;;;;;;;11.30;6.47;;;;;;;8.06;53.27;99763.59;4959095;28;96826;-79
2021/12/04 08:20:25;;;;;;;10.57;6.47;;;;;;;7.76;53.62;99764.81;4957750;28;99190;-79
2021/12/04 08:22:54;;;;;;;13.57;6.13;;;;;;;7.94;53.33;99766.75;4956641;28;99090;-80
2021/12/04 08:25:23;;;;;;;10.05;6.40;;;;;;;8.04;53.49;99760.19;4947740;28;96786;-81
2021/12/04 08:27:51;;;;;;;8.20;5.63;;;;;;;8.07;52.45;99769.72;4954403;28;96744;-80
2021/12/04 08:30:20;;;;;;;7.15;5.28;;;;;;;8.06;53.10;99766.25;4954352;28;98931;-80
2021/12/04 08:32:52;;;;;;;12.15;6.60;;;;;;;8.15;53.25;99772.88;4951383;28;100701;-78
2021/12/04 08:35:23;;;;;;;9.95;6.22;;;;;;;8.21;52.75;99783.16;4956268;28;96718;-79
2021/12/04 08:37:51;;;;;;;11.55;6.03;;;;;;;7.86;53.59;99781.97;4951168;28;96759;-78
2021/12/04 08:40:18;;;;;;;11.40;6.20;;;;;;;7.52;54.10;99771.91;4955525;28;98901;-79
2021/12/04 08:42:48;;;;;;;11.05;6.10;;;;;;;7.80;53.64;99771.69;4955585;28;100248;-79
2021/12/04 08:45:20;;;;;;;11.27;6.10;;;;;;;8.02;52.92;99773.38;4959313;28;97114;-77
2021/12/04 08:47:47;;;;;;;9.57;6.80;;;;;;;8.02;53.88;99778.66;4958508;28;96920;-81
2021/12/04 08:50:46;;;;;;;9.90;6.53;;;;;;;8.22;53.15;99775.19;4960347;28;98845;-79
2021/12/04 08:53:40;;;;;;;;;;;;;;;;;;;;;
2021/12/04 08:56:21;;;;;;;8.80;6.47;;;;;;;8.55;51.49;99782.63;4945160;28;114144;-79
2021/12/04 08:59:15;;;;;;;12.20;6.88;;;;;;;8.59;52.25;99781.59;4959776;28;96857;-79
2021/12/04 09:02:12;;;;;;;13.20;7.22;;;;;;;8.48;52.65;99781.19;4921532;28;97027;-79
2021/12/04 09:04:40;;;;;;;15.90;7.55;;;;;;;8.32;52.81;99783.63;4966624;22;101688;-79
2021/12/04 09:07:08;;;;;;;15.10;7.38;;;;;;;8.20;52.95;99781.47;4973296;28;96544;-78
2021/12/04 09:09:35;;;;;;;11.18;6.93;;;;;;;8.04;53.40;99786.47;4981321;28;96783;-78
2021/12/04 09:12:06;;;;;;;12.00;7.65;;;;;;;8.08;53.79;99785.44;4967665;28;99299;-79
2021/12/04 09:14:37;;;;;;;10.77;7.75;;;;;;;8.30;52.99;99782.78;4977329;28;97146;-80
2021/12/04 09:17:07;;;;;;;11.40;7.65;;;;;;;8.46;52.76;99790.94;4972866;28;96739;-79
2021/12/04 09:19:34;;;;;;;11.05;7.45;;;;;;;8.62;52.33;99798.13;4977214;28;96768;-80
2021/12/04 09:22:02;;;;;;;12.63;7.93;;;;;;;8.75;52.14;99795.81;4974931;28;99080;-78
2021/12/04 09:24:36;;;;;;;17.27;10.32;;;;;;;8.60;52.41;99797.31;4965762;28;99425;-78
2021/12/04 09:27:09;;;;;;;13.70;8.40;;;;;;;8.68;52.13;99794.38;4974387;28;96730;-79
2021/12/04 09:29:54;;;;;;;13.75;8.60;;;;;;;8.79;51.40;99790.34;4980446;28;96720;-80
2021/12/04 09:32:48;;;;;;;13.60;8.73;;;;;;;8.74;51.52;99800.22;4972792;28;99726;-80
2021/12/04 09:35:47;;;;;;;15.55;8.90;;;;;;;8.78;51.80;99788.66;4975236;28;99893;-78
2021/12/04 10:00:33;;;;;;;15.68;9.57;;;;;;;8.37;53.29;99771.97;4968854;28;96637;-79
2021/12/04 10:06:18;;;;;;;15.38;9.77;;;;;;;8.48;53.00;99766.25;4975339;28;98010;-78
2021/12/04 10:11:58;;;;;;;17.70;10.40;;;;;;;8.66;52.83;99754.91;4977894;28;97077;-79
2021/12/04 10:20:14;;;;;;;19.40;10.52;;;;;;;8.56;52.56;99740.47;4976436;28;100486;-78
2021/12/04 10:23:00;;;;;;;12.68;9.60;;;;;;;8.73;52.45;99742.34;4976500;28;96928;-79
2021/12/04 10:33:48;;;;;;;16.10;10.25;;;;;;;8.09;54.05;99742.41;4973476;28;96777;-78
2021/12/04 10:36:28;;;;;;;13.90;9.85;;;;;;;8.29;54.05;99741.59;4976625;28;97210;-79
2021/12/04 10:38:55;;;;;;;16.90;9.98;;;;;;;8.57;53.10;99742.16;4969044;28;98390;-79
2021/12/04 10:41:30;;;;;;;15.90;10.43;;;;;;;8.50;52.59;99732.81;4978188;28;98833;-78
2021/12/04 10:44:12;;;;;;;13.20;9.65;;;;;;;8.23;53.59;99733.94;4975162;28;97806;-78
2021/12/04 10:46:38;;;;;;;14.20;9.27;;;;;;;8.48;53.52;99723.25;4970812;28;96784;-78
2021/12/04 10:49:08;;;;;;;13.27;9.13;;;;;;;8.45;53.51;99720.78;4968405;28;99651;-78
2021/12/04 10:51:47;;;;;;;15.07;9.35;;;;;;;8.49;53.09;99722.34;4967157;28;101364;-78
2021/12/04 10:54:16;;;;;;;18.48;9.60;;;;;;;8.76;51.91;99711.47;4975498;28;96873;-77
2021/12/04 10:57:00;;;;;;;14.18;9.45;;;;;;;8.79;52.23;99710.50;4971609;28;97513;-78
2021/12/04 10:59:35;;;;;;;13.88;9.20;;;;;;;8.40;52.52;99707.81;4977673;28;98862;-78
2021/12/04 11:02:10;;;;;;;13.45;9.32;;;;;;;8.53;53.06;99700.25;4969835;28;96919;-78
2021/12/04 11:04:42;;;;;;;15.35;9.48;;;;;;;8.57;52.68;99700.03;4972474;28;96918;-80
2021/12/04 11:07:33;;;;;;;12.13;8.88;;;;;;;8.49;52.72;99696.03;4976109;28;97003;-79
2021/12/04 11:21:40;;;;;;;14.52;9.50;;;;;;;8.17;53.68;99685.06;4936264;28;97636;-79
2021/12/04 11:27:19;;;;;;;16.00;9.68;;;;;;;8.64;52.97;99664.63;4978155;28;97287;-77
2021/12/04 11:38:11;;;;;;;13.00;9.77;;;;;;;9.13;51.83;99654.44;4962803;28;96710;-78
2021/12/04 11:40:55;;;;;;;17.52;11.27;;;;;;;8.89;52.07;99650.31;4968256;28;99380;-79
2021/12/04 11:43:27;;;;;;;15.25;10.27;;;;;;;8.95;51.92;99650.03;4974174;28;99056;-76
2021/12/04 11:46:13;;;;;;;15.05;9.55;;;;;;;9.13;52.01;99662.34;4984603;28;98839;-77
2021/12/04 11:48:42;;;;;;;14.13;10.48;;;;;;;8.71;52.10;99659.94;4989594;28;97188;-76
2021/12/04 11:51:13;;;;;;;14.80;10.55;;;;;;;8.70;52.02;99648.53;4990020;28;97333;-78
2021/12/04 11:53:39;;;;;;;14.88;10.55;;;;;;;8.96;51.83;99646.50;4979272;28;99329;-78
2021/12/04 11:56:14;;;;;;;14.70;10.25;;;;;;;9.11;51.52;99651.91;4995551;28;97687;-77
2021/12/04 11:58:43;;;;;;;18.10;11.18;;;;;;;9.09;51.33;99648.47;4986942;28;96485;-77
2021/12/04 12:01:23;;;;;;;15.88;10.95;;;;;;;8.97;51.82;99649.06;4986399;28;96623;-78
2021/12/04 12:03:53;;;;;;;16.85;11.55;;;;;;;9.01;51.88;99645.34;4971571;28;99191;-77
2021/12/04 12:06:30;;;;;;;17.83;11.75;;;;;;;8.90;52.03;99652.03;4978487;28;99460;-78
2021/12/04 12:09:04;;;;;;;16.70;10.65;;;;;;;8.94;52.02;99636.00;4978312;28;96738;-77
2021/12/04 12:11:32;;;;;;;15.82;11.15;;;;;;;8.88;52.29;99628.41;4965091;28;96629;-78
2021/12/04 12:14:03;;;;;;;16.23;10.93;;;;;;;8.96;51.88;99631.53;4978276;28;100195;-77
2021/12/04 12:16:35;;;;;;;17.70;11.27;;;;;;;8.99;51.76;99630.56;4970646;28;99326;-77
2021/12/04 12:19:08;;;;;;;18.50;11.32;;;;;;;8.81;52.26;99619.06;4966085;28;96684;-78
2021/12/04 12:21:50;;;;;;;17.92;12.25;;;;;;;8.58;52.26;99619.28;4970975;28;96733;-79
2021/12/04 12:24:36;;;;;;;16.23;11.63;;;;;;;8.60;52.42;99627.97;4978494;28;98064;-78
2021/12/04 12:27:19;;;;;;;16.80;10.93;;;;;;;8.80;52.90;99622.63;4971153;28;99364;-77
2021/12/04 12:32:47;;;;;;;;;;;;;;;8.41;53.14;99614.75;4967512;28;96681;-78
2021/12/04 12:38:09;;;;;;;12.18;9.27;;;;;;;8.51;52.76;99608.16;4993320;28;96107;-78
2021/12/04 12:40:37;;;;;;;13.23;9.20;;;;;;;8.72;51.91;99614.22;4993892;28;95733;-78
2021/12/04 12:43:19;;;;;;;12.13;9.18;;;;;;;8.58;52.16;99608.75;4993194;28;97783;-79
2021/12/04 12:45:57;;;;;;;16.17;11.00;;;;;;;8.56;52.25;99607.94;4998453;28;97718;-79
2021/12/04 12:48:23;;;;;;;14.55;10.50;;;;;;;8.62;52.20;99610.28;4984095;28;101091;-78
2021/12/04 12:50:50;;;;;;;15.20;11.15;;;;;;;8.64;52.46;99613.72;4978592;28;97042;-78
2021/12/04 12:53:19;;;;;;;18.30;11.10;;;;;;;8.79;51.90;99613.03;4980931;28;96848;-79
2021/12/04 12:55:48;;;;;;;15.65;10.75;;;;;;;8.83;51.75;99604.06;4993681;28;99249;-78
2021/12/04 12:58:24;;;;;;;14.77;10.18;;;;;;;8.70;51.84;99605.53;4983731;28;99480;-80
2021/12/04 13:11:56;;;;;;;10.55;8.30;;;;;;;8.76;51.53;99608.75;4969011;28;97008;-78
2021/12/04 13:14:27;;;;;;;11.32;8.20;;;;;;;8.84;51.42;99610.19;4978459;28;96898;-79
2021/12/04 13:17:06;;;;;;;10.52;7.78;;;;;;;8.62;51.35;99616.41;4976337;28;98200;-78
2021/12/04 13:19:36;;;;;;;11.55;7.78;;;;;;;8.64;52.08;99616.34;4972974;28;99561;-79
2021/12/04 13:22:06;;;;;;;11.80;8.52;;;;;;;8.78;51.25;99614.81;4974124;28;96820;-78
2021/12/04 13:24:36;;;;;;;11.90;8.63;;;;;;;8.67;52.00;99619.69;4965517;28;96833;-79
2021/12/04 13:29:40;;;;;;;10.18;7.45;;;;;;;8.60;51.58;99626.16;4966633;28;96835;-78
2021/12/04 13:32:09;;;;;;;11.77;8.35;;;;;;;8.53;52.32;99632.66;4983166;28;96984;-78
2021/12/04 13:34:37;;;;;;;14.30;8.75;;;;;;;8.60;51.63;99625.34;4983555;28;97015;-80
2021/12/04 13:37:05;;;;;;;11.07;8.35;;;;;;;8.75;51.56;99616.72;4976082;28;99014;-78
2021/12/04 13:39:33;;;;;;;10.07;8.00;;;;;;;8.99;50.93;99618.19;4984751;28;98856;-79
2021/12/04 13:42:01;;;;;;;13.93;8.35;;;;;;;8.88;50.96;99625.75;4974980;28;96638;-79
2021/12/04 13:44:29;;;;;;;11.35;8.43;;;;;;;8.94;50.39;99616.72;4981373;28;96872;-77
2021/12/04 13:47:02;;;;;;;11.20;8.35;;;;;;;8.88;51.37;99617.84;4975585;28;98283;-78
2021/12/04 13:49:33;;;;;;;11.65;7.80;;;;;;;8.94;51.54;99601.75;4978539;28;98846;-79
2021/12/04 13:52:03;;;;;;;10.07;7.68;;;;;;;8.85;50.75;99589.03;4979369;28;96741;-79
2021/12/04 13:54:32;;;;;;;13.05;9.35;;;;;;;8.87;51.07;99594.22;4979991;28;97219;-79
2021/12/04 13:56:59;;;;;;;18.00;9.45;;;;;;;9.07;51.05;99586.22;4972702;28;98304;-78
2021/12/04 13:59:28;;;;;;;13.25;9.82;;;;;;;8.71;51.92;99594.09;4987928;28;100742;-79
2021/12/04 14:01:56;;;;;;;16.48;11.10;;;;;;;8.89;51.22;99598.50;4987108;28;96796;-79